createdAt,value
2022-07-27T00:00:55.981Z,22.72
2022-07-27T00:03:23.528Z,22.77
2022-07-27T00:05:50.969Z,22.70
2022-07-27T00:08:20.580Z,22.65
2022-07-27T00:10:48.251Z,22.72
2022-07-27T00:13:15.647Z,22.67
2022-07-27T00:15:42.677Z,22.69
2022-07-27T00:18:09.693Z,22.64
2022-07-27T00:20:37.551Z,22.61
2022-07-27T00:23:04.443Z,22.68
2022-07-27T00:25:31.533Z,22.72
2022-07-27T00:27:58.521Z,22.71
2022-07-27T00:30:26.068Z,22.68
2022-07-27T00:32:53.313Z,22.70
2022-07-27T00:35:20.311Z,22.65
2022-07-27T00:37:47.262Z,22.66
2022-07-27T00:40:14.322Z,22.67
2022-07-27T00:45:45.385Z,22.54
2022-07-27T00:48:12.467Z,22.60
2022-07-27T00:50:42.066Z,22.62
2022-07-27T00:53:10.141Z,22.66
2022-07-27T00:55:39.386Z,22.63
2022-07-27T00:58:08.802Z,22.58
2022-07-27T01:00:38.055Z,22.55
2022-07-27T01:03:09.594Z,22.64
2022-07-27T01:05:42.405Z,22.65
2022-07-27T01:08:12.826Z,22.68
2022-07-27T01:10:40.942Z,22.67
2022-07-27T01:13:12.488Z,22.66
2022-07-27T01:15:41.315Z,22.62
2022-07-27T01:18:27.218Z,22.63
2022-07-27T01:20:55.455Z,22.46
2022-07-27T01:23:26.097Z,22.46
2022-07-27T01:25:53.649Z,22.43
2022-07-27T01:28:21.283Z,22.46
2022-07-27T01:30:48.233Z,22.44
2022-07-27T01:33:15.131Z,22.40
2022-07-27T01:35:42.039Z,22.36
2022-07-27T01:38:11.588Z,22.38
2022-07-27T01:40:39.915Z,22.39
2022-07-27T01:43:07.236Z,22.41
2022-07-27T01:45:34.353Z,22.35
2022-07-27T01:48:01.732Z,22.39
2022-07-27T01:50:28.892Z,22.41
2022-07-27T01:52:55.768Z,22.44
2022-07-27T01:55:22.761Z,22.38
2022-07-27T01:57:49.675Z,22.28
2022-07-27T02:00:16.792Z,22.30
2022-07-27T02:02:43.665Z,22.23
2022-07-27T02:05:14.260Z,22.24
2022-07-27T02:07:41.717Z,22.26
2022-07-27T02:10:10.585Z,22.26
2022-07-27T02:12:38.273Z,22.25
2022-07-27T02:15:14.893Z,22.26
2022-07-27T02:17:46.003Z,22.23
2022-07-27T02:20:15.413Z,22.12
2022-07-27T02:22:43.057Z,22.15
2022-07-27T02:25:11.789Z,22.08
2022-07-27T02:27:40.379Z,22.09
2022-07-27T02:30:08.930Z,22.11
2022-07-27T02:32:35.868Z,22.12
2022-07-27T02:35:03.169Z,22.16
2022-07-27T02:37:47.272Z,22.14
2022-07-27T02:40:17.458Z,22.07
2022-07-27T02:42:45.807Z,22.04
2022-07-27T02:45:13.018Z,22.04
2022-07-27T02:47:40.295Z,22.04
2022-07-27T02:50:08.485Z,22.07
2022-07-27T02:52:35.686Z,22.10
2022-07-27T03:12:46.671Z,21.16
2022-07-27T03:15:13.639Z,21.36
2022-07-27T03:17:40.864Z,21.55
2022-07-27T03:20:09.442Z,21.69
2022-07-27T03:22:37.861Z,21.83
2022-07-27T03:25:05.282Z,21.97
2022-07-27T03:27:32.132Z,22.05
2022-07-27T03:29:59.002Z,22.21
2022-07-27T03:32:25.921Z,22.26
2022-07-27T03:34:53.202Z,22.40
2022-07-27T03:37:20.224Z,22.49
2022-07-27T03:39:47.193Z,22.59
2022-07-27T03:42:14.495Z,22.68
2022-07-27T03:44:41.439Z,22.74
2022-07-27T03:47:08.398Z,22.85
2022-07-27T03:49:35.456Z,22.83
2022-07-27T03:52:02.394Z,23.02
2022-07-27T03:54:29.297Z,23.22
2022-07-27T03:56:56.245Z,23.54
2022-07-27T03:59:23.193Z,23.93
2022-07-27T04:01:50.239Z,24.36
2022-07-27T04:04:17.184Z,24.83
2022-07-27T04:06:44.029Z,25.34
2022-07-27T04:09:11.362Z,25.80
2022-07-27T04:11:43.773Z,26.20
2022-07-27T04:14:19.273Z,26.51
2022-07-27T04:16:47.176Z,26.79
2022-07-27T04:19:14.350Z,27.03
2022-07-27T04:21:41.364Z,27.45
2022-07-27T04:24:08.559Z,27.83
2022-07-27T04:26:35.487Z,28.40
2022-07-27T04:29:02.399Z,28.73
2022-07-27T04:31:29.431Z,29.05
2022-07-27T04:33:56.350Z,28.96
2022-07-27T04:36:23.423Z,29.31
2022-07-27T04:38:50.284Z,29.37
2022-07-27T04:41:17.618Z,29.63
2022-07-27T04:43:44.523Z,29.86
2022-07-27T04:46:15.329Z,29.70
2022-07-27T04:48:49.517Z,30.58
2022-07-27T04:51:18.157Z,31.13
2022-07-27T04:53:54.103Z,31.56
2022-07-27T04:56:26.700Z,32.46
2022-07-27T04:58:54.803Z,32.74
2022-07-27T05:01:23.177Z,32.81
2022-07-27T05:03:50.347Z,33.18
2022-07-27T05:06:17.489Z,32.76
2022-07-27T05:08:44.613Z,32.47
2022-07-27T05:11:11.827Z,31.44
2022-07-27T05:13:40.631Z,30.42
2022-07-27T05:16:11.826Z,29.67
2022-07-27T05:18:39.261Z,29.89
2022-07-27T05:21:07.819Z,30.48
2022-07-27T05:23:34.871Z,29.66
2022-07-27T05:26:02.110Z,29.32
2022-07-27T05:28:29.184Z,29.22
2022-07-27T05:30:56.747Z,29.91
2022-07-27T05:33:23.626Z,31.32
2022-07-27T05:35:50.971Z,30.40
2022-07-27T05:38:17.915Z,29.90
2022-07-27T05:40:46.309Z,30.57
2022-07-27T05:43:13.985Z,30.42
2022-07-27T05:45:41.109Z,30.85
2022-07-27T05:48:08.830Z,31.49
2022-07-27T05:50:36.037Z,31.08
2022-07-27T05:53:03.760Z,31.97
2022-07-27T05:55:30.653Z,31.69
2022-07-27T05:57:57.590Z,33.20
2022-07-27T06:00:24.681Z,33.98
2022-07-27T06:02:51.876Z,33.01
2022-07-27T06:05:18.870Z,33.22
2022-07-27T06:08:02.974Z,33.65
2022-07-27T06:10:32.667Z,33.27
2022-07-27T06:13:00.610Z,32.85
2022-07-27T06:15:27.721Z,33.03
2022-07-27T06:17:55.123Z,32.60
2022-07-27T06:20:23.183Z,32.61
2022-07-27T06:23:00.420Z,31.98
2022-07-27T06:25:34.562Z,32.69
2022-07-27T06:28:03.727Z,34.10
2022-07-27T06:30:30.791Z,34.23
2022-07-27T06:32:58.724Z,34.71
2022-07-27T06:35:26.817Z,34.84
2022-07-27T06:37:54.202Z,34.52
2022-07-27T06:40:21.529Z,34.33
2022-07-27T06:42:48.668Z,34.44
2022-07-27T06:45:16.560Z,34.87
2022-07-27T06:47:49.406Z,35.93
2022-07-27T06:50:18.452Z,35.67
2022-07-27T06:52:45.471Z,36.44
2022-07-27T06:55:12.965Z,35.87
2022-07-27T06:57:40.221Z,36.11
2022-07-27T07:00:08.108Z,36.09
2022-07-27T07:02:35.031Z,35.88
2022-07-27T07:05:01.909Z,35.64
2022-07-27T07:07:28.931Z,35.82
2022-07-27T07:09:55.777Z,34.50
2022-07-27T07:12:22.782Z,36.11
2022-07-27T07:14:49.728Z,36.36
2022-07-27T07:17:16.740Z,37.12
2022-07-27T07:19:46.680Z,36.00
2022-07-27T07:22:13.631Z,36.40
2022-07-27T07:24:40.806Z,36.33
2022-07-27T07:27:07.756Z,34.74
2022-07-27T07:29:34.691Z,33.76
2022-07-27T07:32:01.574Z,32.22
2022-07-27T07:34:29.658Z,31.87
2022-07-27T07:36:56.644Z,32.44
2022-07-27T07:39:27.816Z,31.90
2022-07-27T07:41:58.044Z,31.29
2022-07-27T07:44:25.074Z,31.07
2022-07-27T07:46:52.244Z,31.21
2022-07-27T07:49:37.746Z,31.51
2022-07-27T07:52:06.275Z,32.49
2022-07-27T07:54:33.323Z,32.25
2022-07-27T07:57:00.478Z,32.27
2022-07-27T07:59:27.399Z,31.88
2022-07-27T08:01:54.479Z,31.74
2022-07-27T08:04:21.487Z,32.01
2022-07-27T08:06:48.378Z,32.01
2022-07-27T08:09:17.137Z,31.93
2022-07-27T08:11:44.933Z,31.68
2022-07-27T08:14:11.965Z,31.83
2022-07-27T08:16:39.160Z,31.69
2022-07-27T08:19:06.330Z,31.80
2022-07-27T08:21:36.503Z,31.85
2022-07-27T08:24:03.880Z,31.62
2022-07-27T08:26:30.794Z,31.71
2022-07-27T08:28:59.334Z,31.83
2022-07-27T08:31:50.921Z,31.37
2022-07-27T08:34:13.366Z,31.45
2022-07-27T08:36:40.360Z,31.27
2022-07-27T08:39:08.771Z,31.59
2022-07-27T08:41:42.261Z,31.22
2022-07-27T08:44:13.070Z,32.68
2022-07-27T08:46:40.852Z,33.40
2022-07-27T08:49:08.849Z,34.91
2022-07-27T08:51:36.093Z,34.51
2022-07-27T08:54:03.214Z,35.26
2022-07-27T08:56:30.209Z,34.71
2022-07-27T08:58:57.733Z,34.47
2022-07-27T09:01:24.721Z,34.97
2022-07-27T09:03:51.912Z,35.92
2022-07-27T09:06:53.055Z,35.87
2022-07-27T09:09:22.284Z,35.76
2022-07-27T09:12:09.889Z,37.07
2022-07-27T09:14:38.608Z,36.90
2022-07-27T09:20:17.865Z,36.04
2022-07-27T09:22:54.964Z,35.15
2022-07-27T09:25:38.720Z,35.45
2022-07-27T09:28:09.524Z,34.84
2022-07-27T09:30:42.704Z,35.96
2022-07-27T09:33:09.849Z,36.52
2022-07-27T09:35:36.852Z,36.04
2022-07-27T09:38:18.780Z,37.41
2022-07-27T09:40:46.825Z,37.01
2022-07-27T09:46:07.653Z,34.97
2022-07-27T09:48:35.781Z,35.98
2022-07-27T09:51:37.439Z,34.79
2022-07-27T09:53:54.507Z,33.65
2022-07-27T09:56:29.679Z,35.00
2022-07-27T09:58:59.411Z,34.87
2022-07-27T10:01:35.212Z,34.75
2022-07-27T10:04:07.321Z,34.14
2022-07-27T10:06:53.480Z,34.07
2022-07-27T10:09:21.455Z,34.13
2022-07-27T10:11:49.580Z,34.83
2022-07-27T10:14:16.715Z,35.18
2022-07-27T10:16:48.474Z,34.81
2022-07-27T10:19:45.081Z,35.54
2022-07-27T10:22:12.084Z,34.96
2022-07-27T10:24:39.225Z,35.19
2022-07-27T10:27:20.312Z,34.96
2022-07-27T10:29:49.669Z,35.41
2022-07-27T10:32:33.263Z,34.54
2022-07-27T10:35:01.647Z,34.56
2022-07-27T10:37:31.414Z,34.66
2022-07-27T10:40:39.412Z,34.49
2022-07-27T10:43:09.436Z,35.28
2022-07-27T10:46:00.207Z,34.51
2022-07-27T10:48:48.283Z,33.41
2022-07-27T10:51:17.145Z,32.21
2022-07-27T10:56:47.491Z,32.24
2022-07-27T10:59:14.642Z,32.83
2022-07-27T11:01:58.501Z,32.70
2022-07-27T11:04:26.341Z,32.44
2022-07-27T11:07:23.890Z,33.22
2022-07-27T11:10:03.582Z,34.04
2022-07-27T11:12:31.531Z,35.43
2022-07-27T11:15:01.037Z,35.17
2022-07-27T11:17:54.191Z,34.14
2022-07-27T11:20:22.783Z,34.61
2022-07-27T11:25:36.669Z,33.83
2022-07-27T11:28:09.973Z,33.77
2022-07-27T11:30:37.363Z,33.10
2022-07-27T11:33:05.467Z,30.56
2022-07-27T11:35:32.549Z,29.32
2022-07-27T11:38:05.448Z,28.25
2022-07-27T11:40:58.092Z,27.91
2022-07-27T11:43:45.409Z,27.52
2022-07-27T11:46:26.651Z,26.74
2022-07-27T11:49:13.352Z,26.76
2022-07-27T11:51:43.484Z,26.74
2022-07-27T11:54:25.167Z,26.69
2022-07-27T11:57:10.069Z,26.52
2022-07-27T11:59:39.080Z,26.30
2022-07-27T12:02:08.866Z,25.81
2022-07-27T12:04:38.867Z,26.24
2022-07-27T12:07:11.217Z,26.34
2022-07-27T12:09:45.438Z,26.54
2022-07-27T12:12:15.818Z,26.27
2022-07-27T12:14:46.179Z,26.42
2022-07-27T12:17:15.623Z,26.02
2022-07-27T12:19:43.313Z,26.37
2022-07-27T12:22:10.435Z,26.12
2022-07-27T12:24:39.988Z,26.47
2022-07-27T12:27:15.566Z,26.26
2022-07-27T12:30:16.739Z,26.32
2022-07-27T12:32:46.013Z,26.54
2022-07-27T12:35:44.102Z,26.04
2022-07-27T12:38:13.762Z,26.07
2022-07-27T12:40:46.678Z,26.26
2022-07-27T12:43:18.004Z,26.32
2022-07-27T12:45:46.991Z,26.31
2022-07-27T12:48:16.601Z,26.68
2022-07-27T12:50:46.733Z,26.27
2022-07-27T12:53:15.965Z,25.93
2022-07-27T12:55:44.134Z,26.17
2022-07-27T12:58:14.362Z,26.41
2022-07-27T13:00:41.958Z,26.62
2022-07-27T13:03:09.328Z,26.76
2022-07-27T13:05:36.765Z,26.83
2022-07-27T13:08:04.902Z,26.70
2022-07-27T13:10:32.367Z,26.55
2022-07-27T13:12:59.441Z,26.59
2022-07-27T13:15:26.674Z,26.37
2022-07-27T13:17:53.601Z,26.29
2022-07-27T13:20:20.919Z,26.34
2022-07-27T13:22:47.973Z,26.06
2022-07-27T13:25:17.616Z,26.39
2022-07-27T13:27:46.799Z,26.44
2022-07-27T13:30:16.041Z,26.37
2022-07-27T13:32:43.718Z,26.22
2022-07-27T13:35:12.754Z,26.19
2022-07-27T13:37:40.173Z,26.22
2022-07-27T13:40:08.924Z,26.00
2022-07-27T13:42:36.042Z,26.26
2022-07-27T13:45:09.865Z,25.99
2022-07-27T13:47:39.474Z,25.74
2022-07-27T13:50:16.712Z,25.78
2022-07-27T13:52:44.831Z,25.99
2022-07-27T13:55:14.495Z,25.85
2022-07-27T13:57:41.572Z,25.65
2022-07-27T14:00:09.084Z,25.46
2022-07-27T14:02:36.011Z,25.61
2022-07-27T14:05:04.310Z,25.60
2022-07-27T14:07:33.397Z,25.62
2022-07-27T14:10:19.052Z,25.78
2022-07-27T14:12:45.987Z,25.76
2022-07-27T14:15:13.687Z,25.69
2022-07-27T14:17:40.780Z,25.66
2022-07-27T14:20:08.769Z,25.66
2022-07-27T14:22:35.866Z,25.83
2022-07-27T14:25:02.962Z,25.73
2022-07-27T14:27:33.707Z,25.59
2022-07-27T14:30:09.747Z,25.61
2022-07-27T14:32:36.726Z,25.65
2022-07-27T14:35:05.163Z,25.73
2022-07-27T14:37:34.336Z,25.62
2022-07-27T14:40:02.142Z,25.87
2022-07-27T14:42:29.211Z,25.92
2022-07-27T14:44:56.676Z,25.83
2022-07-27T14:47:24.185Z,25.47
2022-07-27T14:49:51.367Z,25.46
2022-07-27T14:52:18.837Z,25.53
2022-07-27T14:54:47.454Z,25.57
2022-07-27T14:57:15.673Z,25.54
2022-07-27T15:15:00.496Z,24.97
2022-07-27T15:17:27.574Z,24.97
2022-07-27T15:19:54.532Z,24.98
2022-07-27T15:22:21.417Z,25.07
2022-07-27T15:24:52.922Z,25.04
2022-07-27T15:27:20.794Z,25.03
2022-07-27T15:29:47.762Z,24.97
2022-07-27T15:32:14.921Z,24.98
2022-07-27T15:34:43.714Z,25.06
2022-07-27T15:37:10.660Z,25.10
2022-07-27T15:39:39.479Z,25.06
2022-07-27T15:42:08.419Z,24.96
2022-07-27T15:44:37.162Z,24.73
2022-07-27T15:47:04.644Z,24.81
2022-07-27T15:49:31.625Z,24.77
2022-07-27T15:51:58.982Z,24.82
2022-07-27T15:54:27.992Z,24.92
2022-07-27T15:56:57.131Z,24.92
2022-07-27T15:59:24.042Z,24.94
2022-07-27T16:01:51.037Z,24.93
2022-07-27T16:04:20.677Z,25.06
2022-07-27T16:06:47.639Z,24.99
2022-07-27T16:09:14.706Z,24.99
2022-07-27T16:11:42.051Z,24.93
2022-07-27T16:14:09.065Z,24.82
2022-07-27T16:16:35.962Z,24.85
2022-07-27T16:19:13.720Z,24.73
2022-07-27T16:21:54.774Z,24.81
2022-07-27T16:24:24.209Z,24.82
2022-07-27T16:26:51.131Z,24.78
2022-07-27T16:29:18.371Z,24.78
2022-07-27T16:31:45.425Z,24.65
2022-07-27T16:34:12.439Z,24.54
2022-07-27T16:36:39.530Z,24.58
2022-07-27T16:39:06.552Z,24.59
2022-07-27T16:41:33.593Z,24.61
2022-07-27T16:44:00.685Z,24.61
2022-07-27T16:46:27.749Z,24.58
2022-07-27T16:48:54.824Z,24.62
2022-07-27T16:51:21.876Z,24.49
2022-07-27T16:53:48.784Z,24.42
2022-07-27T16:56:16.425Z,24.44
2022-07-27T16:58:44.588Z,24.34
2022-07-27T17:01:21.740Z,24.35
2022-07-27T17:03:54.078Z,24.30
2022-07-27T17:06:21.131Z,24.34
2022-07-27T17:08:48.649Z,24.35
2022-07-27T17:11:20.869Z,24.29
2022-07-27T17:13:49.776Z,24.30
2022-07-27T17:16:17.668Z,24.28
2022-07-27T17:18:44.795Z,24.25
2022-07-27T17:21:14.801Z,24.29
2022-07-27T17:23:42.536Z,24.28
2022-07-27T17:26:12.365Z,24.22
2022-07-27T17:28:40.285Z,24.21
2022-07-27T17:31:10.562Z,24.19
2022-07-27T17:33:38.320Z,24.10
2022-07-27T17:36:08.525Z,24.09
2022-07-27T17:38:40.894Z,24.11
2022-07-27T17:41:07.842Z,24.07
2022-07-27T17:43:38.821Z,24.13
2022-07-27T17:46:06.599Z,24.09
2022-07-27T17:48:35.441Z,24.11
2022-07-27T17:51:02.929Z,24.09
2022-07-27T17:53:30.086Z,24.06
2022-07-27T17:55:57.031Z,24.11
2022-07-27T17:58:29.446Z,24.13
2022-07-27T18:00:56.982Z,24.12
2022-07-27T18:03:23.951Z,24.07
2022-07-27T18:05:50.922Z,24.09
2022-07-27T18:08:17.998Z,24.02
2022-07-27T18:10:44.819Z,24.05
2022-07-27T18:13:11.749Z,24.04
2022-07-27T18:15:47.567Z,23.98
2022-07-27T18:18:15.545Z,23.98
2022-07-27T18:20:43.451Z,23.97
2022-07-27T18:23:10.687Z,23.99
2022-07-27T18:25:37.679Z,23.98
2022-07-27T18:28:05.122Z,23.94
2022-07-27T18:30:32.468Z,23.97
2022-07-27T18:32:59.438Z,23.90
2022-07-27T18:35:26.364Z,23.88
2022-07-27T18:37:53.311Z,23.93
2022-07-27T18:40:21.827Z,23.97
2022-07-27T18:42:48.814Z,23.93
2022-07-27T18:45:15.806Z,23.97
2022-07-27T18:47:49.277Z,23.95
2022-07-27T18:50:16.840Z,23.89
2022-07-27T18:52:43.775Z,23.86
2022-07-27T18:55:10.834Z,23.87
2022-07-27T18:57:38.138Z,23.86
2022-07-27T19:00:06.853Z,23.83
2022-07-27T19:02:38.931Z,23.88
2022-07-27T19:05:07.453Z,23.84
2022-07-27T19:07:37.359Z,23.88
2022-07-27T19:10:07.416Z,23.90
2022-07-27T19:12:34.423Z,23.85
2022-07-27T19:15:01.523Z,23.80
2022-07-27T19:17:28.483Z,23.82
2022-07-27T19:19:55.417Z,23.82
2022-07-27T19:22:22.315Z,23.84
2022-07-27T19:24:54.633Z,23.90
2022-07-27T19:27:22.278Z,23.86
2022-07-27T19:29:49.301Z,23.91
2022-07-27T19:32:16.965Z,23.89
2022-07-27T19:34:43.982Z,23.87
2022-07-27T19:37:12.533Z,23.86
2022-07-27T19:40:02.117Z,23.84
2022-07-27T19:42:27.230Z,23.85
2022-07-27T19:44:55.354Z,23.83
2022-07-27T19:47:22.304Z,23.84
2022-07-27T19:49:49.299Z,23.87
2022-07-27T19:52:16.290Z,23.79
2022-07-27T19:54:43.580Z,23.77
2022-07-27T19:57:11.717Z,23.75
2022-07-27T19:59:55.734Z,23.71
2022-07-27T20:02:25.167Z,23.68
2022-07-27T20:04:52.137Z,23.74
2022-07-27T20:07:19.094Z,23.69
2022-07-27T20:09:45.962Z,23.75
2022-07-27T20:12:12.974Z,23.73
2022-07-27T20:14:39.999Z,23.72
2022-07-27T20:17:07.093Z,23.81
2022-07-27T20:19:34.237Z,23.84
2022-07-27T20:22:01.608Z,23.77
2022-07-27T20:24:29.503Z,23.81
2022-07-27T20:26:57.293Z,23.81
2022-07-27T20:29:24.209Z,23.81
2022-07-27T20:31:54.588Z,23.83
2022-07-27T20:34:23.584Z,23.87
2022-07-27T20:36:50.711Z,23.88
2022-07-27T20:39:18.550Z,23.91
2022-07-27T20:41:46.056Z,23.98
2022-07-27T20:44:13.129Z,23.96
2022-07-27T20:46:40.083Z,23.96
2022-07-27T20:49:07.182Z,23.94
2022-07-27T20:51:34.309Z,23.92
2022-07-27T20:54:01.316Z,23.91
2022-07-27T20:56:28.214Z,23.96
2022-07-27T20:58:55.153Z,23.83
2022-07-27T21:01:22.069Z,23.81
2022-07-27T21:03:49.273Z,23.81
2022-07-27T21:06:16.412Z,23.74
2022-07-27T21:08:46.667Z,23.75
2022-07-27T21:11:14.412Z,23.77
2022-07-27T21:13:41.550Z,23.75
2022-07-27T21:16:08.775Z,23.80
2022-07-27T21:18:35.847Z,23.67
2022-07-27T21:21:02.899Z,23.67
2022-07-27T21:23:48.491Z,23.69
2022-07-27T21:26:18.166Z,23.64
2022-07-27T21:28:46.014Z,23.73
2022-07-27T21:31:13.283Z,23.77
2022-07-27T21:33:40.307Z,23.81
2022-07-27T21:36:07.758Z,23.85
2022-07-27T21:38:35.059Z,23.76
2022-07-27T21:41:01.953Z,23.75
2022-07-27T21:43:29.000Z,23.72
2022-07-27T21:45:55.963Z,23.71
2022-07-27T21:48:23.023Z,23.76
2022-07-27T21:50:50.120Z,23.74
2022-07-27T21:53:17.302Z,23.76
2022-07-27T21:55:44.222Z,23.58
2022-07-27T21:58:12.445Z,23.57
2022-07-27T22:00:39.901Z,23.53
2022-07-27T22:03:07.874Z,23.54
2022-07-27T22:05:35.724Z,23.52
2022-07-27T22:08:03.783Z,23.55
2022-07-27T22:10:32.003Z,23.60
2022-07-27T22:12:59.233Z,23.59
2022-07-27T22:15:27.117Z,23.56
2022-07-27T22:17:54.290Z,23.51
2022-07-27T22:20:22.281Z,23.52
2022-07-27T22:22:50.828Z,23.55
2022-07-27T22:25:18.921Z,23.48
2022-07-27T22:27:45.945Z,23.54
2022-07-27T22:30:12.888Z,23.53
2022-07-27T22:32:39.746Z,23.55
2022-07-27T22:35:07.301Z,23.61
2022-07-27T22:37:34.215Z,23.62
2022-07-27T22:40:01.055Z,23.57
2022-07-27T22:42:28.323Z,23.65
2022-07-27T22:44:55.235Z,23.63
2022-07-27T22:47:22.425Z,23.65
2022-07-27T22:49:49.626Z,23.60
2022-07-27T22:52:16.522Z,23.53
2022-07-27T22:54:43.514Z,23.53
2022-07-27T22:57:10.627Z,23.51
2022-07-27T22:59:37.684Z,23.50
2022-07-27T23:02:05.614Z,23.46
2022-07-27T23:04:32.651Z,23.51
2022-07-27T23:06:59.762Z,23.52
2022-07-27T23:09:26.780Z,23.58
2022-07-27T23:11:53.795Z,23.59
2022-07-27T23:14:20.905Z,23.55
2022-07-27T23:16:47.958Z,23.48
2022-07-27T23:19:14.949Z,23.47
2022-07-27T23:21:42.414Z,23.44
2022-07-27T23:24:10.941Z,23.44
2022-07-27T23:26:38.416Z,23.39
2022-07-27T23:29:05.370Z,23.45
2022-07-27T23:31:32.387Z,23.41
2022-07-27T23:33:59.555Z,23.35
2022-07-27T23:36:26.816Z,23.31
2022-07-27T23:38:53.876Z,23.28
2022-07-27T23:41:20.857Z,23.28
2022-07-27T23:43:47.777Z,23.22
2022-07-27T23:46:14.772Z,23.21
2022-07-27T23:48:41.911Z,23.18
2022-07-27T23:51:09.300Z,23.19
2022-07-27T23:53:36.902Z,23.21
2022-07-27T23:56:03.854Z,23.20
2022-07-27T23:58:30.843Z,23.19
